sensor_id;sensor_type;location;lat;lon;timestamp;temperature;humidity
8945;DHT22;4507;40.232;29.132;2023-02-28T00:00:08;13.10;68.10
8945;DHT22;4507;40.232;29.132;2023-02-28T00:02:40;13.10;68.20
8945;DHT22;4507;40.232;29.132;2023-02-28T00:05:11;13.10;68.50
8945;DHT22;4507;40.232;29.132;2023-02-28T00:07:40;13.10;68.70
8945;DHT22;4507;40.232;29.132;2023-02-28T00:10:11;13.10;69.00
8945;DHT22;4507;40.232;29.132;2023-02-28T00:12:41;13.10;69.30
8945;DHT22;4507;40.232;29.132;2023-02-28T00:15:11;13.10;69.40
8945;DHT22;4507;40.232;29.132;2023-02-28T00:17:45;13.20;69.50
8945;DHT22;4507;40.232;29.132;2023-02-28T00:20:15;13.20;69.50
8945;DHT22;4507;40.232;29.132;2023-02-28T00:22:45;13.30;69.60
8945;DHT22;4507;40.232;29.132;2023-02-28T00:25:16;13.30;69.40
8945;DHT22;4507;40.232;29.132;2023-02-28T00:27:46;13.30;68.80
8945;DHT22;4507;40.232;29.132;2023-02-28T00:30:17;13.40;69.00
8945;DHT22;4507;40.232;29.132;2023-02-28T00:32:48;13.40;68.90
8945;DHT22;4507;40.232;29.132;2023-02-28T00:35:17;13.40;68.60
8945;DHT22;4507;40.232;29.132;2023-02-28T00:37:48;13.30;68.50
8945;DHT22;4507;40.232;29.132;2023-02-28T00:40:17;13.30;68.50
8945;DHT22;4507;40.232;29.132;2023-02-28T00:42:46;13.20;68.50
8945;DHT22;4507;40.232;29.132;2023-02-28T00:45:15;13.10;68.80
8945;DHT22;4507;40.232;29.132;2023-02-28T00:47:44;13.10;69.30
8945;DHT22;4507;40.232;29.132;2023-02-28T00:50:17;13.00;69.80
8945;DHT22;4507;40.232;29.132;2023-02-28T00:52:46;13.00;70.00
8945;DHT22;4507;40.232;29.132;2023-02-28T00:55:15;13.00;70.10
8945;DHT22;4507;40.232;29.132;2023-02-28T00:57:45;13.00;70.60
8945;DHT22;4507;40.232;29.132;2023-02-28T01:00:15;13.10;71.10
8945;DHT22;4507;40.232;29.132;2023-02-28T01:02:44;13.10;71.30
8945;DHT22;4507;40.232;29.132;2023-02-28T01:05:14;13.10;71.10
8945;DHT22;4507;40.232;29.132;2023-02-28T01:07:46;13.10;71.30
8945;DHT22;4507;40.232;29.132;2023-02-28T01:10:16;13.20;71.30
8945;DHT22;4507;40.232;29.132;2023-02-28T01:12:44;13.10;71.20
8945;DHT22;4507;40.232;29.132;2023-02-28T01:15:15;13.10;72.00
8945;DHT22;4507;40.232;29.132;2023-02-28T01:17:44;13.10;72.00
8945;DHT22;4507;40.232;29.132;2023-02-28T01:20:14;13.10;71.20
8945;DHT22;4507;40.232;29.132;2023-02-28T01:22:43;13.20;71.90
8945;DHT22;4507;40.232;29.132;2023-02-28T01:25:14;13.30;72.70
8945;DHT22;4507;40.232;29.132;2023-02-28T01:27:43;13.40;73.00
8945;DHT22;4507;40.232;29.132;2023-02-28T01:30:13;13.50;73.10
8945;DHT22;4507;40.232;29.132;2023-02-28T01:33:00;13.50;72.60
8945;DHT22;4507;40.232;29.132;2023-02-28T01:35:32;13.60;72.30
8945;DHT22;4507;40.232;29.132;2023-02-28T01:38:02;13.70;72.00
8945;DHT22;4507;40.232;29.132;2023-02-28T01:40:49;13.80;71.90
8945;DHT22;4507;40.232;29.132;2023-02-28T01:43:22;13.90;71.20
8945;DHT22;4507;40.232;29.132;2023-02-28T01:45:51;14.00;70.60
8945;DHT22;4507;40.232;29.132;2023-02-28T01:48:24;14.10;70.30
8945;DHT22;4507;40.232;29.132;2023-02-28T01:50:55;14.20;70.00
8945;DHT22;4507;40.232;29.132;2023-02-28T01:53:34;14.20;69.80
8945;DHT22;4507;40.232;29.132;2023-02-28T01:56:08;14.30;69.50
8945;DHT22;4507;40.232;29.132;2023-02-28T01:58:40;14.30;69.70
8945;DHT22;4507;40.232;29.132;2023-02-28T02:01:09;14.30;70.20
8945;DHT22;4507;40.232;29.132;2023-02-28T02:03:50;14.30;70.10
8945;DHT22;4507;40.232;29.132;2023-02-28T02:06:37;14.40;70.40
8945;DHT22;4507;40.232;29.132;2023-02-28T02:09:11;14.30;71.10
8945;DHT22;4507;40.232;29.132;2023-02-28T02:11:48;14.30;71.90
8945;DHT22;4507;40.232;29.132;2023-02-28T02:14:43;14.30;73.10
8945;DHT22;4507;40.232;29.132;2023-02-28T02:17:26;14.30;73.60
8945;DHT22;4507;40.232;29.132;2023-02-28T02:20:19;14.30;73.30
8945;DHT22;4507;40.232;29.132;2023-02-28T02:25:55;14.20;73.80
8945;DHT22;4507;40.232;29.132;2023-02-28T02:28:57;14.20;74.20
8945;DHT22;4507;40.232;29.132;2023-02-28T02:34:43;14.20;74.60
8945;DHT22;4507;40.232;29.132;2023-02-28T02:37:23;14.20;75.40
8945;DHT22;4507;40.232;29.132;2023-02-28T02:40:03;14.20;75.80
8945;DHT22;4507;40.232;29.132;2023-02-28T02:42:39;14.20;76.20
8945;DHT22;4507;40.232;29.132;2023-02-28T02:45:13;14.10;76.90
8945;DHT22;4507;40.232;29.132;2023-02-28T02:47:44;14.10;77.30
8945;DHT22;4507;40.232;29.132;2023-02-28T02:50:19;14.00;77.50
8945;DHT22;4507;40.232;29.132;2023-02-28T02:52:54;14.00;78.20
8945;DHT22;4507;40.232;29.132;2023-02-28T02:55:25;14.00;78.70
8945;DHT22;4507;40.232;29.132;2023-02-28T02:57:57;14.00;78.50
8945;DHT22;4507;40.232;29.132;2023-02-28T03:00:32;14.00;78.60
8945;DHT22;4507;40.232;29.132;2023-02-28T03:03:07;14.00;78.90
8945;DHT22;4507;40.232;29.132;2023-02-28T03:05:44;14.00;79.10
8945;DHT22;4507;40.232;29.132;2023-02-28T03:08:15;14.00;79.50
8945;DHT22;4507;40.232;29.132;2023-02-28T03:10:46;14.00;79.70
8945;DHT22;4507;40.232;29.132;2023-02-28T03:13:52;14.00;79.90
8945;DHT22;4507;40.232;29.132;2023-02-28T03:16:32;14.10;80.00
8945;DHT22;4507;40.232;29.132;2023-02-28T03:19:17;14.10;80.00
8945;DHT22;4507;40.232;29.132;2023-02-28T03:22:05;14.10;79.90
8945;DHT22;4507;40.232;29.132;2023-02-28T03:24:43;14.10;80.40
8945;DHT22;4507;40.232;29.132;2023-02-28T03:27:19;14.10;80.70
8945;DHT22;4507;40.232;29.132;2023-02-28T03:29:54;14.10;81.00
8945;DHT22;4507;40.232;29.132;2023-02-28T03:32:28;14.10;81.20
8945;DHT22;4507;40.232;29.132;2023-02-28T03:35:02;14.10;81.40
8945;DHT22;4507;40.232;29.132;2023-02-28T03:37:38;14.10;81.60
8945;DHT22;4507;40.232;29.132;2023-02-28T03:40:32;14.10;81.90
8945;DHT22;4507;40.232;29.132;2023-02-28T03:43:06;14.10;82.30
8945;DHT22;4507;40.232;29.132;2023-02-28T03:45:38;14.10;82.40
8945;DHT22;4507;40.232;29.132;2023-02-28T03:48:13;14.10;82.40
8945;DHT22;4507;40.232;29.132;2023-02-28T03:50:45;14.10;82.50
8945;DHT22;4507;40.232;29.132;2023-02-28T03:53:20;14.00;82.50
8945;DHT22;4507;40.232;29.132;2023-02-28T03:55:52;14.00;82.80
8945;DHT22;4507;40.232;29.132;2023-02-28T03:58:26;14.00;83.20
8945;DHT22;4507;40.232;29.132;2023-02-28T04:01:01;14.00;83.60
8945;DHT22;4507;40.232;29.132;2023-02-28T04:03:35;14.00;83.80
8945;DHT22;4507;40.232;29.132;2023-02-28T04:06:06;13.90;83.90
8945;DHT22;4507;40.232;29.132;2023-02-28T04:08:37;13.90;84.20
8945;DHT22;4507;40.232;29.132;2023-02-28T04:11:29;13.90;84.60
8945;DHT22;4507;40.232;29.132;2023-02-28T04:14:00;13.80;84.90
8945;DHT22;4507;40.232;29.132;2023-02-28T04:16:30;13.80;85.20
8945;DHT22;4507;40.232;29.132;2023-02-28T04:19:02;13.70;85.60
8945;DHT22;4507;40.232;29.132;2023-02-28T04:21:35;13.60;86.10
8945;DHT22;4507;40.232;29.132;2023-02-28T04:24:10;13.60;86.70
8945;DHT22;4507;40.232;29.132;2023-02-28T04:26:43;13.50;87.20
8945;DHT22;4507;40.232;29.132;2023-02-28T04:29:17;13.40;87.60
8945;DHT22;4507;40.232;29.132;2023-02-28T04:31:46;13.40;88.10
8945;DHT22;4507;40.232;29.132;2023-02-28T04:34:15;13.40;88.70
8945;DHT22;4507;40.232;29.132;2023-02-28T04:36:46;13.40;89.10
8945;DHT22;4507;40.232;29.132;2023-02-28T04:39:37;13.40;89.50
8945;DHT22;4507;40.232;29.132;2023-02-28T04:42:06;13.30;89.80
8945;DHT22;4507;40.232;29.132;2023-02-28T04:44:35;13.40;90.00
8945;DHT22;4507;40.232;29.132;2023-02-28T04:47:04;13.40;90.10
8945;DHT22;4507;40.232;29.132;2023-02-28T04:49:32;13.40;90.20
8945;DHT22;4507;40.232;29.132;2023-02-28T04:52:02;13.30;90.40
8945;DHT22;4507;40.232;29.132;2023-02-28T04:54:30;13.40;90.10
8945;DHT22;4507;40.232;29.132;2023-02-28T04:57:01;13.40;90.10
8945;DHT22;4507;40.232;29.132;2023-02-28T04:59:31;13.40;90.10
8945;DHT22;4507;40.232;29.132;2023-02-28T05:02:05;13.40;90.20
8945;DHT22;4507;40.232;29.132;2023-02-28T05:04:42;13.40;90.10
8945;DHT22;4507;40.232;29.132;2023-02-28T05:07:11;13.40;90.40
8945;DHT22;4507;40.232;29.132;2023-02-28T05:09:40;13.50;90.00
8945;DHT22;4507;40.232;29.132;2023-02-28T05:12:11;13.40;89.10
8945;DHT22;4507;40.232;29.132;2023-02-28T05:14:39;13.40;88.30
8945;DHT22;4507;40.232;29.132;2023-02-28T05:17:18;13.40;87.80
8945;DHT22;4507;40.232;29.132;2023-02-28T05:19:52;13.50;87.80
8945;DHT22;4507;40.232;29.132;2023-02-28T05:22:32;13.40;86.40
8945;DHT22;4507;40.232;29.132;2023-02-28T05:25:01;13.50;85.50
8945;DHT22;4507;40.232;29.132;2023-02-28T05:27:32;13.40;85.00
8945;DHT22;4507;40.232;29.132;2023-02-28T05:30:01;13.40;84.60
8945;DHT22;4507;40.232;29.132;2023-02-28T05:32:31;13.40;84.20
8945;DHT22;4507;40.232;29.132;2023-02-28T05:35:00;13.50;83.70
8945;DHT22;4507;40.232;29.132;2023-02-28T05:37:29;13.50;83.30
8945;DHT22;4507;40.232;29.132;2023-02-28T05:39:58;13.50;83.10
8945;DHT22;4507;40.232;29.132;2023-02-28T05:42:27;13.50;82.90
8945;DHT22;4507;40.232;29.132;2023-02-28T05:45:00;13.60;82.80
8945;DHT22;4507;40.232;29.132;2023-02-28T05:47:29;13.60;82.30
8945;DHT22;4507;40.232;29.132;2023-02-28T05:49:58;13.70;82.00
8945;DHT22;4507;40.232;29.132;2023-02-28T05:52:27;13.70;81.20
8945;DHT22;4507;40.232;29.132;2023-02-28T05:54:57;13.90;80.70
8945;DHT22;4507;40.232;29.132;2023-02-28T05:57:26;14.00;79.70
8945;DHT22;4507;40.232;29.132;2023-02-28T05:59:55;14.20;79.10
8945;DHT22;4507;40.232;29.132;2023-02-28T06:02:25;14.40;77.90
8945;DHT22;4507;40.232;29.132;2023-02-28T06:04:54;14.50;76.70
8945;DHT22;4507;40.232;29.132;2023-02-28T06:07:23;14.70;76.80
8945;DHT22;4507;40.232;29.132;2023-02-28T06:09:52;15.00;76.30
8945;DHT22;4507;40.232;29.132;2023-02-28T06:12:21;15.20;76.10
8945;DHT22;4507;40.232;29.132;2023-02-28T06:14:50;15.30;76.40
8945;DHT22;4507;40.232;29.132;2023-02-28T06:17:19;15.40;76.50
8945;DHT22;4507;40.232;29.132;2023-02-28T06:19:52;15.50;76.60
8945;DHT22;4507;40.232;29.132;2023-02-28T06:22:29;15.50;76.70
8945;DHT22;4507;40.232;29.132;2023-02-28T06:24:58;15.60;76.10
8945;DHT22;4507;40.232;29.132;2023-02-28T06:27:28;15.50;75.60
8945;DHT22;4507;40.232;29.132;2023-02-28T06:29:57;15.60;75.40
8945;DHT22;4507;40.232;29.132;2023-02-28T06:32:26;15.50;74.70
8945;DHT22;4507;40.232;29.132;2023-02-28T06:34:56;15.50;74.70
8945;DHT22;4507;40.232;29.132;2023-02-28T06:37:25;15.50;74.70
8945;DHT22;4507;40.232;29.132;2023-02-28T06:39:55;15.50;74.80
8945;DHT22;4507;40.232;29.132;2023-02-28T06:42:24;15.60;75.30
8945;DHT22;4507;40.232;29.132;2023-02-28T06:44:57;15.50;75.60
8945;DHT22;4507;40.232;29.132;2023-02-28T06:47:26;15.50;75.80
8945;DHT22;4507;40.232;29.132;2023-02-28T06:49:57;15.60;76.10
8945;DHT22;4507;40.232;29.132;2023-02-28T06:52:25;15.60;76.30
8945;DHT22;4507;40.232;29.132;2023-02-28T06:54:56;15.60;76.20
8945;DHT22;4507;40.232;29.132;2023-02-28T06:57:28;15.60;76.30
8945;DHT22;4507;40.232;29.132;2023-02-28T06:59:59;15.60;76.50
8945;DHT22;4507;40.232;29.132;2023-02-28T07:02:28;15.60;77.40
8945;DHT22;4507;40.232;29.132;2023-02-28T07:04:59;15.60;76.70
8945;DHT22;4507;40.232;29.132;2023-02-28T07:07:28;15.60;76.80
8945;DHT22;4507;40.232;29.132;2023-02-28T07:10:04;15.70;77.20
8945;DHT22;4507;40.232;29.132;2023-02-28T07:12:33;15.70;77.40
8945;DHT22;4507;40.232;29.132;2023-02-28T07:15:02;15.80;77.60
8945;DHT22;4507;40.232;29.132;2023-02-28T07:17:31;15.80;76.40
8945;DHT22;4507;40.232;29.132;2023-02-28T07:20:02;15.80;74.50
8945;DHT22;4507;40.232;29.132;2023-02-28T07:22:32;16.00;72.70
8945;DHT22;4507;40.232;29.132;2023-02-28T07:25:01;16.10;71.20
8945;DHT22;4507;40.232;29.132;2023-02-28T07:27:30;16.30;69.90
8945;DHT22;4507;40.232;29.132;2023-02-28T07:29:59;16.40;68.80
8945;DHT22;4507;40.232;29.132;2023-02-28T07:32:31;16.60;68.10
8945;DHT22;4507;40.232;29.132;2023-02-28T07:35:01;16.70;67.20
8945;DHT22;4507;40.232;29.132;2023-02-28T07:37:30;16.80;66.20
8945;DHT22;4507;40.232;29.132;2023-02-28T07:40:04;16.90;65.70
8945;DHT22;4507;40.232;29.132;2023-02-28T07:42:36;17.00;65.10
8945;DHT22;4507;40.232;29.132;2023-02-28T07:45:06;17.10;64.60
8945;DHT22;4507;40.232;29.132;2023-02-28T07:47:35;17.20;64.40
8945;DHT22;4507;40.232;29.132;2023-02-28T07:50:07;17.20;65.10
8945;DHT22;4507;40.232;29.132;2023-02-28T07:52:37;17.30;64.50
8945;DHT22;4507;40.232;29.132;2023-02-28T07:55:09;17.40;63.00
8945;DHT22;4507;40.232;29.132;2023-02-28T07:57:40;17.40;61.70
8945;DHT22;4507;40.232;29.132;2023-02-28T08:00:14;17.50;61.50
8945;DHT22;4507;40.232;29.132;2023-02-28T08:02:45;17.50;61.20
8945;DHT22;4507;40.232;29.132;2023-02-28T08:05:18;17.50;61.10
8945;DHT22;4507;40.232;29.132;2023-02-28T08:07:49;17.60;61.50
8945;DHT22;4507;40.232;29.132;2023-02-28T08:10:18;17.60;61.00
8945;DHT22;4507;40.232;29.132;2023-02-28T08:12:47;17.60;61.10
8945;DHT22;4507;40.232;29.132;2023-02-28T08:15:17;17.60;61.10
8945;DHT22;4507;40.232;29.132;2023-02-28T08:17:54;17.70;60.80
8945;DHT22;4507;40.232;29.132;2023-02-28T08:20:28;17.70;61.30
8945;DHT22;4507;40.232;29.132;2023-02-28T08:23:00;17.70;60.60
8945;DHT22;4507;40.232;29.132;2023-02-28T08:25:39;17.80;60.50
8945;DHT22;4507;40.232;29.132;2023-02-28T08:28:10;17.80;61.00
8945;DHT22;4507;40.232;29.132;2023-02-28T08:30:59;18.00;61.70
8945;DHT22;4507;40.232;29.132;2023-02-28T08:33:30;17.80;61.90
8945;DHT22;4507;40.232;29.132;2023-02-28T08:36:01;17.80;62.20
8945;DHT22;4507;40.232;29.132;2023-02-28T08:38:32;17.90;62.70
8945;DHT22;4507;40.232;29.132;2023-02-28T08:41:06;17.90;62.50
8945;DHT22;4507;40.232;29.132;2023-02-28T08:43:37;17.90;62.60
8945;DHT22;4507;40.232;29.132;2023-02-28T08:46:07;17.90;62.00
8945;DHT22;4507;40.232;29.132;2023-02-28T08:48:37;17.80;61.90
8945;DHT22;4507;40.232;29.132;2023-02-28T08:51:09;17.80;62.30
8945;DHT22;4507;40.232;29.132;2023-02-28T08:53:39;17.80;62.50
8945;DHT22;4507;40.232;29.132;2023-02-28T08:56:10;17.80;62.90
8945;DHT22;4507;40.232;29.132;2023-02-28T08:58:39;17.90;63.20
8945;DHT22;4507;40.232;29.132;2023-02-28T09:01:12;17.80;63.20
8945;DHT22;4507;40.232;29.132;2023-02-28T09:03:42;17.90;63.30
8945;DHT22;4507;40.232;29.132;2023-02-28T09:06:15;17.90;63.30
8945;DHT22;4507;40.232;29.132;2023-02-28T09:08:45;17.90;62.30
8945;DHT22;4507;40.232;29.132;2023-02-28T09:11:18;17.90;62.10
8945;DHT22;4507;40.232;29.132;2023-02-28T09:13:51;17.90;61.70
8945;DHT22;4507;40.232;29.132;2023-02-28T09:16:20;17.90;61.90
8945;DHT22;4507;40.232;29.132;2023-02-28T09:18:49;17.90;62.00
8945;DHT22;4507;40.232;29.132;2023-02-28T09:21:20;17.90;62.10
8945;DHT22;4507;40.232;29.132;2023-02-28T09:23:50;18.00;62.10
8945;DHT22;4507;40.232;29.132;2023-02-28T09:26:21;18.00;61.90
8945;DHT22;4507;40.232;29.132;2023-02-28T09:28:51;18.00;61.70
8945;DHT22;4507;40.232;29.132;2023-02-28T09:31:22;18.00;61.90
8945;DHT22;4507;40.232;29.132;2023-02-28T09:33:53;18.00;61.60
8945;DHT22;4507;40.232;29.132;2023-02-28T09:36:27;18.00;61.90
8945;DHT22;4507;40.232;29.132;2023-02-28T09:39:10;18.10;61.50
8945;DHT22;4507;40.232;29.132;2023-02-28T09:41:41;18.10;61.90
8945;DHT22;4507;40.232;29.132;2023-02-28T09:44:22;18.10;61.50
8945;DHT22;4507;40.232;29.132;2023-02-28T09:46:56;18.10;61.60
8945;DHT22;4507;40.232;29.132;2023-02-28T09:49:34;18.10;61.50
8945;DHT22;4507;40.232;29.132;2023-02-28T09:52:10;18.10;61.90
8945;DHT22;4507;40.232;29.132;2023-02-28T09:54:39;18.10;61.80
8945;DHT22;4507;40.232;29.132;2023-02-28T09:57:16;17.90;61.70
8945;DHT22;4507;40.232;29.132;2023-02-28T09:59:58;18.20;62.10
8945;DHT22;4507;40.232;29.132;2023-02-28T10:02:49;18.30;62.30
8945;DHT22;4507;40.232;29.132;2023-02-28T10:05:24;18.30;61.90
8945;DHT22;4507;40.232;29.132;2023-02-28T10:08:02;18.30;61.60
8945;DHT22;4507;40.232;29.132;2023-02-28T10:10:38;18.40;62.10
8945;DHT22;4507;40.232;29.132;2023-02-28T10:13:15;18.40;61.80
8945;DHT22;4507;40.232;29.132;2023-02-28T10:15:47;18.50;61.90
8945;DHT22;4507;40.232;29.132;2023-02-28T10:18:23;18.60;61.60
8945;DHT22;4507;40.232;29.132;2023-02-28T10:20:54;18.70;61.50
8945;DHT22;4507;40.232;29.132;2023-02-28T10:23:28;18.80;61.20
8945;DHT22;4507;40.232;29.132;2023-02-28T10:25:59;18.80;60.80
8945;DHT22;4507;40.232;29.132;2023-02-28T10:28:29;18.90;60.60
8945;DHT22;4507;40.232;29.132;2023-02-28T10:30:59;19.00;60.30
8945;DHT22;4507;40.232;29.132;2023-02-28T10:33:30;19.00;59.90
8945;DHT22;4507;40.232;29.132;2023-02-28T10:36:01;19.10;59.70
8945;DHT22;4507;40.232;29.132;2023-02-28T10:38:35;19.10;59.60
8945;DHT22;4507;40.232;29.132;2023-02-28T10:41:06;19.20;59.50
8945;DHT22;4507;40.232;29.132;2023-02-28T10:43:37;19.20;58.90
8945;DHT22;4507;40.232;29.132;2023-02-28T10:46:13;19.20;58.70
8945;DHT22;4507;40.232;29.132;2023-02-28T10:49:04;19.20;58.30
8945;DHT22;4507;40.232;29.132;2023-02-28T10:51:38;19.30;58.40
8945;DHT22;4507;40.232;29.132;2023-02-28T10:54:18;19.30;58.30
8945;DHT22;4507;40.232;29.132;2023-02-28T10:57:06;19.30;58.20
8945;DHT22;4507;40.232;29.132;2023-02-28T10:59:36;19.40;58.00
8945;DHT22;4507;40.232;29.132;2023-02-28T11:02:30;19.40;57.90
8945;DHT22;4507;40.232;29.132;2023-02-28T11:05:00;19.50;57.90
8945;DHT22;4507;40.232;29.132;2023-02-28T11:07:30;19.40;57.70
8945;DHT22;4507;40.232;29.132;2023-02-28T11:10:20;19.40;57.70
8945;DHT22;4507;40.232;29.132;2023-02-28T11:12:54;19.50;57.70
8945;DHT22;4507;40.232;29.132;2023-02-28T11:15:28;19.50;57.80
8945;DHT22;4507;40.232;29.132;2023-02-28T11:18:01;19.60;57.80
8945;DHT22;4507;40.232;29.132;2023-02-28T11:20:33;19.60;57.50
8945;DHT22;4507;40.232;29.132;2023-02-28T11:23:04;19.70;57.70
8945;DHT22;4507;40.232;29.132;2023-02-28T11:25:37;19.60;56.80
8945;DHT22;4507;40.232;29.132;2023-02-28T11:28:26;19.70;56.70
8945;DHT22;4507;40.232;29.132;2023-02-28T11:31:06;19.70;55.90
8945;DHT22;4507;40.232;29.132;2023-02-28T11:33:45;19.70;56.10
8945;DHT22;4507;40.232;29.132;2023-02-28T11:36:20;19.70;55.90
8945;DHT22;4507;40.232;29.132;2023-02-28T11:38:53;19.70;56.30
8945;DHT22;4507;40.232;29.132;2023-02-28T11:41:44;19.70;55.40
8945;DHT22;4507;40.232;29.132;2023-02-28T11:44:28;19.70;54.30
8945;DHT22;4507;40.232;29.132;2023-02-28T11:47:07;19.80;53.80
8945;DHT22;4507;40.232;29.132;2023-02-28T11:49:44;19.80;53.00
8945;DHT22;4507;40.232;29.132;2023-02-28T11:52:21;19.80;51.10
8945;DHT22;4507;40.232;29.132;2023-02-28T11:55:11;19.80;50.70
8945;DHT22;4507;40.232;29.132;2023-02-28T11:57:57;19.80;50.70
8945;DHT22;4507;40.232;29.132;2023-02-28T12:00:39;19.90;50.70
8945;DHT22;4507;40.232;29.132;2023-02-28T12:03:19;19.90;50.50
8945;DHT22;4507;40.232;29.132;2023-02-28T12:05:58;19.90;50.40
8945;DHT22;4507;40.232;29.132;2023-02-28T12:08:43;19.90;49.90
8945;DHT22;4507;40.232;29.132;2023-02-28T12:11:18;19.90;49.70
8945;DHT22;4507;40.232;29.132;2023-02-28T12:13:57;20.00;49.70
8945;DHT22;4507;40.232;29.132;2023-02-28T12:16:41;20.00;49.00
8945;DHT22;4507;40.232;29.132;2023-02-28T12:19:18;20.00;49.00
8945;DHT22;4507;40.232;29.132;2023-02-28T12:22:00;19.90;48.80
8945;DHT22;4507;40.232;29.132;2023-02-28T12:24:55;19.90;48.40
8945;DHT22;4507;40.232;29.132;2023-02-28T12:27:29;19.90;48.30
8945;DHT22;4507;40.232;29.132;2023-02-28T12:30:04;19.90;48.50
8945;DHT22;4507;40.232;29.132;2023-02-28T12:32:37;19.90;48.60
8945;DHT22;4507;40.232;29.132;2023-02-28T12:35:12;20.00;49.40
8945;DHT22;4507;40.232;29.132;2023-02-28T12:37:46;20.00;47.90
8945;DHT22;4507;40.232;29.132;2023-02-28T12:40:19;20.00;47.70
8945;DHT22;4507;40.232;29.132;2023-02-28T12:42:51;20.00;47.10
8945;DHT22;4507;40.232;29.132;2023-02-28T12:45:24;20.00;46.60
8945;DHT22;4507;40.232;29.132;2023-02-28T12:47:58;20.00;46.80
8945;DHT22;4507;40.232;29.132;2023-02-28T12:50:30;20.00;46.80
8945;DHT22;4507;40.232;29.132;2023-02-28T12:53:05;20.00;47.30
8945;DHT22;4507;40.232;29.132;2023-02-28T12:55:42;20.00;47.60
8945;DHT22;4507;40.232;29.132;2023-02-28T12:58:16;20.00;47.60
8945;DHT22;4507;40.232;29.132;2023-02-28T13:01:09;19.90;47.40
8945;DHT22;4507;40.232;29.132;2023-02-28T13:09:35;19.80;48.10
8945;DHT22;4507;40.232;29.132;2023-02-28T13:12:13;19.80;48.40
8945;DHT22;4507;40.232;29.132;2023-02-28T13:14:43;19.70;48.60
8945;DHT22;4507;40.232;29.132;2023-02-28T13:17:18;19.70;48.70
8945;DHT22;4507;40.232;29.132;2023-02-28T13:19:58;19.60;48.80
8945;DHT22;4507;40.232;29.132;2023-02-28T13:22:40;19.60;48.70
8945;DHT22;4507;40.232;29.132;2023-02-28T13:38:17;19.40;50.50
8945;DHT22;4507;40.232;29.132;2023-02-28T13:40:50;19.30;50.80
8945;DHT22;4507;40.232;29.132;2023-02-28T13:43:19;19.20;50.80
8945;DHT22;4507;40.232;29.132;2023-02-28T13:46:11;19.10;51.10
8945;DHT22;4507;40.232;29.132;2023-02-28T13:48:41;19.00;51.50
8945;DHT22;4507;40.232;29.132;2023-02-28T13:51:39;19.00;52.20
8945;DHT22;4507;40.232;29.132;2023-02-28T13:54:30;18.90;52.50
8945;DHT22;4507;40.232;29.132;2023-02-28T13:57:17;18.80;53.00
8945;DHT22;4507;40.232;29.132;2023-02-28T13:59:59;18.80;53.10
8945;DHT22;4507;40.232;29.132;2023-02-28T14:03:07;18.70;53.30
8945;DHT22;4507;40.232;29.132;2023-02-28T14:05:40;18.70;53.60
8945;DHT22;4507;40.232;29.132;2023-02-28T14:08:16;18.60;53.80
8945;DHT22;4507;40.232;29.132;2023-02-28T14:10:49;18.60;54.30
8945;DHT22;4507;40.232;29.132;2023-02-28T14:13:40;18.50;54.60
8945;DHT22;4507;40.232;29.132;2023-02-28T14:16:14;18.40;55.00
8945;DHT22;4507;40.232;29.132;2023-02-28T14:18:50;18.40;55.60
8945;DHT22;4507;40.232;29.132;2023-02-28T14:21:25;18.30;56.30
8945;DHT22;4507;40.232;29.132;2023-02-28T14:24:23;18.20;57.10
8945;DHT22;4507;40.232;29.132;2023-02-28T14:27:13;18.10;57.90
8945;DHT22;4507;40.232;29.132;2023-02-28T14:32:46;18.00;58.90
8945;DHT22;4507;40.232;29.132;2023-02-28T14:35:28;17.90;59.30
8945;DHT22;4507;40.232;29.132;2023-02-28T14:37:58;17.90;60.00
8945;DHT22;4507;40.232;29.132;2023-02-28T14:40:32;17.80;60.80
8945;DHT22;4507;40.232;29.132;2023-02-28T14:43:03;17.70;61.70
8945;DHT22;4507;40.232;29.132;2023-02-28T14:45:35;17.70;62.60
8945;DHT22;4507;40.232;29.132;2023-02-28T14:48:09;17.60;63.40
8945;DHT22;4507;40.232;29.132;2023-02-28T14:50:38;17.50;64.30
8945;DHT22;4507;40.232;29.132;2023-02-28T14:53:17;17.50;65.30
8945;DHT22;4507;40.232;29.132;2023-02-28T14:55:49;17.40;65.90
8945;DHT22;4507;40.232;29.132;2023-02-28T14:58:24;17.30;66.20
8945;DHT22;4507;40.232;29.132;2023-02-28T15:00:54;17.20;66.80
8945;DHT22;4507;40.232;29.132;2023-02-28T15:03:33;17.20;67.00
8945;DHT22;4507;40.232;29.132;2023-02-28T15:06:05;17.10;67.70
8945;DHT22;4507;40.232;29.132;2023-02-28T15:08:34;17.10;68.70
8945;DHT22;4507;40.232;29.132;2023-02-28T15:11:09;17.00;68.70
8945;DHT22;4507;40.232;29.132;2023-02-28T15:13:43;17.00;69.00
8945;DHT22;4507;40.232;29.132;2023-02-28T15:16:17;17.00;69.60
8945;DHT22;4507;40.232;29.132;2023-02-28T15:18:49;17.00;70.20
8945;DHT22;4507;40.232;29.132;2023-02-28T15:21:21;17.00;71.10
8945;DHT22;4507;40.232;29.132;2023-02-28T15:23:53;16.90;71.10
8945;DHT22;4507;40.232;29.132;2023-02-28T15:26:30;16.90;71.60
8945;DHT22;4507;40.232;29.132;2023-02-28T15:29:03;16.80;71.80
8945;DHT22;4507;40.232;29.132;2023-02-28T15:31:34;16.80;72.10
8945;DHT22;4507;40.232;29.132;2023-02-28T15:34:26;16.70;72.40
8945;DHT22;4507;40.232;29.132;2023-02-28T15:39:52;16.60;72.60
8945;DHT22;4507;40.232;29.132;2023-02-28T15:42:27;16.60;72.80
8945;DHT22;4507;40.232;29.132;2023-02-28T15:44:56;16.50;73.30
8945;DHT22;4507;40.232;29.132;2023-02-28T15:47:28;16.50;72.90
8945;DHT22;4507;40.232;29.132;2023-02-28T15:49:59;16.50;73.10
8945;DHT22;4507;40.232;29.132;2023-02-28T15:52:34;16.50;73.10
8945;DHT22;4507;40.232;29.132;2023-02-28T15:55:11;16.50;73.30
8945;DHT22;4507;40.232;29.132;2023-02-28T15:57:42;16.50;73.10
8945;DHT22;4507;40.232;29.132;2023-02-28T16:00:16;16.50;73.10
8945;DHT22;4507;40.232;29.132;2023-02-28T16:02:47;16.50;73.20
8945;DHT22;4507;40.232;29.132;2023-02-28T16:05:25;16.50;72.70
8945;DHT22;4507;40.232;29.132;2023-02-28T16:08:01;16.50;72.70
8945;DHT22;4507;40.232;29.132;2023-02-28T16:10:31;16.50;72.20
8945;DHT22;4507;40.232;29.132;2023-02-28T16:13:02;16.50;71.50
8945;DHT22;4507;40.232;29.132;2023-02-28T16:15:37;16.60;71.00
8945;DHT22;4507;40.232;29.132;2023-02-28T16:18:11;16.60;70.50
8945;DHT22;4507;40.232;29.132;2023-02-28T16:20:40;16.70;70.00
8945;DHT22;4507;40.232;29.132;2023-02-28T16:23:11;16.80;69.30
8945;DHT22;4507;40.232;29.132;2023-02-28T16:25:42;16.80;68.60
8945;DHT22;4507;40.232;29.132;2023-02-28T16:28:19;16.90;68.50
8945;DHT22;4507;40.232;29.132;2023-02-28T16:30:51;17.00;68.20
8945;DHT22;4507;40.232;29.132;2023-02-28T16:33:21;17.00;67.80
8945;DHT22;4507;40.232;29.132;2023-02-28T16:35:52;17.00;67.60
8945;DHT22;4507;40.232;29.132;2023-02-28T16:38:22;17.00;67.50
8945;DHT22;4507;40.232;29.132;2023-02-28T16:40:55;17.00;67.30
8945;DHT22;4507;40.232;29.132;2023-02-28T16:43:32;17.00;67.20
8945;DHT22;4507;40.232;29.132;2023-02-28T16:46:01;17.00;67.20
8945;DHT22;4507;40.232;29.132;2023-02-28T16:48:31;17.00;67.10
8945;DHT22;4507;40.232;29.132;2023-02-28T16:50:59;17.00;67.20
8945;DHT22;4507;40.232;29.132;2023-02-28T16:53:31;16.90;67.20
8945;DHT22;4507;40.232;29.132;2023-02-28T16:56:04;16.90;67.30
8945;DHT22;4507;40.232;29.132;2023-02-28T16:58:35;16.90;67.40